createdAt,value
2022-12-01T00:03:23.779Z,5.42
2022-12-01T00:06:45.598Z,5.32
2022-12-01T00:10:20.752Z,5.19
2022-12-01T00:13:32.622Z,5.07
2022-12-01T00:16:53.779Z,5.07
2022-12-01T00:20:15.727Z,5.04
2022-12-01T00:23:38.767Z,5.03
2022-12-01T00:27:00.703Z,4.96
2022-12-01T00:30:19.661Z,4.92
2022-12-01T00:33:31.364Z,4.90
2022-12-01T00:36:54.611Z,4.84
2022-12-01T00:40:30.581Z,4.84
2022-12-01T00:43:51.572Z,4.79
2022-12-01T00:47:15.605Z,4.74
2022-12-01T00:50:36.633Z,4.63
2022-12-01T00:53:56.723Z,4.60
2022-12-01T00:57:18.695Z,4.54
2022-12-01T01:00:42.606Z,4.52
2022-12-01T01:04:02.782Z,4.43
2022-12-01T01:07:22.487Z,4.39
2022-12-01T01:10:42.595Z,4.33
2022-12-01T01:14:02.673Z,4.36
2022-12-01T01:17:24.683Z,4.35
2022-12-01T01:20:44.499Z,4.25
2022-12-01T01:24:05.435Z,4.28
2022-12-01T01:27:25.612Z,4.26
2022-12-01T01:30:32.653Z,4.17
2022-12-01T01:33:36.842Z,4.17
2022-12-01T01:36:53.012Z,4.21
2022-12-01T01:40:22.325Z,4.12
2022-12-01T01:43:51.371Z,4.05
2022-12-01T01:47:08.342Z,4.00
2022-12-01T01:50:30.481Z,3.93
2022-12-01T01:53:34.075Z,3.89
2022-12-01T01:56:51.518Z,3.82
2022-12-01T02:00:08.169Z,3.77
2022-12-01T02:03:41.405Z,3.86
2022-12-01T02:07:07.380Z,3.93
2022-12-01T02:10:28.012Z,3.86
2022-12-01T02:14:11.198Z,3.70
2022-12-01T02:17:31.712Z,3.58
2022-12-01T02:21:28.656Z,3.47
2022-12-01T02:24:43.825Z,3.37
2022-12-01T02:28:08.760Z,3.34
2022-12-01T02:31:35.905Z,3.35
2022-12-01T02:34:48.820Z,3.31
2022-12-01T02:38:14.760Z,3.23
2022-12-01T02:41:55.464Z,3.18
2022-12-01T02:45:27.333Z,3.14
2022-12-01T02:48:43.936Z,2.98
2022-12-01T02:52:08.812Z,2.97
2022-12-01T02:55:28.845Z,3.01
2022-12-01T02:58:37.777Z,2.97
2022-12-01T03:02:11.901Z,3.03
2022-12-01T03:06:09.280Z,2.88
2022-12-01T03:09:45.564Z,2.74
2022-12-01T03:13:20.714Z,2.86
2022-12-01T03:16:49.218Z,2.87
2022-12-01T03:20:15.248Z,2.84
2022-12-01T03:23:23.816Z,2.80
2022-12-01T03:26:32.913Z,2.59
2022-12-01T03:29:51.783Z,2.71
2022-12-01T03:33:13.198Z,2.83
2022-12-01T03:36:36.149Z,2.75
2022-12-01T03:39:58.754Z,2.67
2022-12-01T03:43:21.504Z,2.60
2022-12-01T03:46:35.752Z,2.53
2022-12-01T03:49:59.202Z,2.52
2022-12-01T03:53:14.459Z,2.63
2022-12-01T03:56:21.982Z,2.74
2022-12-01T03:59:31.140Z,2.85
2022-12-01T04:02:49.847Z,2.92
2022-12-01T04:06:10.216Z,2.99
2022-12-01T04:09:33.924Z,3.00
2022-12-01T04:12:43.949Z,3.04
2022-12-01T04:15:56.976Z,3.08
2022-12-01T04:19:01.279Z,3.00
2022-12-01T04:22:10.618Z,3.05
2022-12-01T04:25:25.957Z,3.09
2022-12-01T04:28:32.649Z,3.11
2022-12-01T04:31:40.114Z,3.06
2022-12-01T04:34:50.296Z,2.93
2022-12-01T04:38:14.095Z,2.74
2022-12-01T04:41:17.513Z,2.63
2022-12-01T04:44:24.347Z,2.53
2022-12-01T04:47:28.160Z,2.41
2022-12-01T04:50:43.949Z,2.41
2022-12-01T04:54:06.545Z,2.32
2022-12-01T04:57:09.389Z,2.42
2022-12-01T05:00:15.947Z,2.43
2022-12-01T05:03:29.096Z,2.45
2022-12-01T05:06:52.068Z,2.55
2022-12-01T05:10:16.054Z,2.63
2022-12-01T05:13:36.070Z,2.63
2022-12-01T05:16:55.909Z,2.55
2022-12-01T05:20:37.905Z,2.46
2022-12-01T05:23:48.577Z,2.37
2022-12-01T05:26:54.750Z,2.27
2022-12-01T05:30:15.918Z,2.31
2022-12-01T05:33:27.104Z,2.29
2022-12-01T05:36:31.695Z,2.15
2022-12-01T05:39:45.826Z,1.96
2022-12-01T05:43:07.546Z,1.97
2022-12-01T05:46:11.876Z,1.91
2022-12-01T05:49:37.859Z,1.92
2022-12-01T05:53:00.474Z,1.86
2022-12-01T05:56:13.895Z,1.84
2022-12-01T05:59:19.814Z,1.92
2022-12-01T06:02:35.702Z,1.92
2022-12-01T06:05:51.901Z,1.82
2022-12-01T06:08:56.175Z,1.77
2022-12-01T06:12:01.943Z,1.78
2022-12-01T06:15:17.643Z,1.86
2022-12-01T06:18:31.990Z,1.76
2022-12-01T06:21:38.165Z,1.80
2022-12-01T06:25:01.730Z,1.89
2022-12-01T06:28:33.694Z,1.85
2022-12-01T06:31:51.115Z,1.80
2022-12-01T06:35:02.490Z,1.84
2022-12-01T06:38:25.674Z,1.80
2022-12-01T06:41:57.383Z,1.80
2022-12-01T06:45:01.252Z,1.79
2022-12-01T06:48:20.514Z,1.77
2022-12-01T06:51:38.813Z,1.79
2022-12-01T06:55:12.843Z,1.87
2022-12-01T06:58:35.922Z,1.87
2022-12-01T07:02:04.331Z,1.76
2022-12-01T07:05:31.928Z,1.80
2022-12-01T07:08:48.933Z,1.78
2022-12-01T07:17:32.785Z,1.80
2022-12-01T07:30:57.957Z,1.95
2022-12-01T07:34:16.947Z,2.08
2022-12-01T07:37:45.416Z,2.23
2022-12-01T07:40:51.251Z,2.32
2022-12-01T07:44:18.963Z,2.54
2022-12-01T07:48:16.857Z,2.85
2022-12-01T07:52:37.770Z,2.94
2022-12-01T07:56:08.621Z,2.96
2022-12-01T07:59:59.381Z,3.11
2022-12-01T08:03:45.815Z,3.04
2022-12-01T08:06:50.658Z,2.98
2022-12-01T08:10:02.479Z,2.98
2022-12-01T08:13:38.123Z,3.00
2022-12-01T08:17:27.437Z,3.06
2022-12-01T08:20:34.085Z,3.06
2022-12-01T08:28:22.514Z,3.20
2022-12-01T08:31:34.102Z,3.33
2022-12-01T08:35:32.129Z,3.43
2022-12-01T08:38:35.467Z,3.48
2022-12-01T08:41:52.706Z,3.49
2022-12-01T08:51:30.738Z,3.84
2022-12-01T08:54:40.910Z,3.91
2022-12-01T09:03:04.878Z,4.00
2022-12-01T09:11:42.290Z,4.19
2022-12-01T09:15:28.848Z,4.26
2022-12-01T09:19:04.981Z,4.18
2022-12-01T09:23:15.680Z,4.38
2022-12-01T09:26:32.398Z,4.40
2022-12-01T09:35:36.153Z,4.57
2022-12-01T09:39:34.228Z,4.68
2022-12-01T09:42:49.577Z,4.89
2022-12-01T09:46:06.605Z,5.04
2022-12-01T09:50:11.902Z,4.92
2022-12-01T09:54:00.888Z,5.14
2022-12-01T10:07:47.941Z,5.45
2022-12-01T10:11:47.343Z,5.63
2022-12-01T10:15:42.258Z,5.80
2022-12-01T10:24:22.315Z,6.05
2022-12-01T10:28:12.593Z,6.12
2022-12-01T10:31:50.856Z,6.22
2022-12-01T10:35:20.385Z,6.36
2022-12-01T10:39:46.213Z,6.42
2022-12-01T10:42:56.298Z,6.51
2022-12-01T10:50:29.075Z,6.70
2022-12-01T10:54:52.635Z,6.75
2022-12-01T10:58:23.480Z,6.96
2022-12-01T11:11:44.615Z,7.27
2022-12-01T11:15:46.017Z,7.21
2022-12-01T11:25:06.137Z,7.06
2022-12-01T11:34:06.684Z,6.98
2022-12-01T11:37:19.644Z,7.08
2022-12-01T11:40:46.866Z,7.11
2022-12-01T11:44:01.129Z,7.16
2022-12-01T11:47:23.608Z,7.30
2022-12-01T11:50:32.078Z,7.27
2022-12-01T11:53:41.733Z,7.46
2022-12-01T11:57:32.425Z,7.91
2022-12-01T12:00:54.513Z,8.11
2022-12-01T12:04:32.141Z,8.28
2022-12-01T12:08:29.335Z,8.00
2022-12-01T12:12:13.809Z,7.67
2022-12-01T12:20:20.343Z,7.68
2022-12-01T12:23:44.126Z,7.74
2022-12-01T12:27:26.820Z,7.58
2022-12-01T12:45:36.397Z,7.00
2022-12-01T12:49:22.281Z,7.20
2022-12-01T12:53:30.890Z,7.25
2022-12-01T12:57:36.279Z,7.33
2022-12-01T13:07:23.064Z,7.34
2022-12-01T13:17:15.505Z,7.28
2022-12-01T13:20:36.106Z,7.27
2022-12-01T13:23:45.996Z,7.26
2022-12-01T13:27:34.283Z,7.25
2022-12-01T13:31:49.902Z,7.25
2022-12-01T13:35:38.482Z,7.23
2022-12-01T13:39:18.972Z,7.28
2022-12-01T13:42:26.882Z,7.24
2022-12-01T13:45:45.011Z,7.24
2022-12-01T13:49:06.822Z,7.28
2022-12-01T13:53:07.687Z,7.23
2022-12-01T13:56:41.271Z,7.28
2022-12-01T14:00:24.295Z,7.31
2022-12-01T14:03:53.328Z,7.23
2022-12-01T14:07:21.467Z,7.17
2022-12-01T14:10:46.526Z,7.19
2022-12-01T14:13:57.436Z,7.08
2022-12-01T14:17:03.959Z,7.03
2022-12-01T14:20:20.184Z,7.00
2022-12-01T14:23:37.060Z,6.89
2022-12-01T14:26:46.711Z,6.74
2022-12-01T14:30:55.200Z,6.66
2022-12-01T14:34:32.268Z,6.65
2022-12-01T14:37:58.656Z,6.57
2022-12-01T14:41:21.099Z,6.50
2022-12-01T14:44:45.032Z,6.68
2022-12-01T14:48:10.133Z,6.54
2022-12-01T14:51:28.293Z,6.50
2022-12-01T14:54:50.097Z,6.50
2022-12-01T14:58:06.459Z,6.49
2022-12-01T15:01:41.591Z,6.42
2022-12-01T15:05:12.591Z,6.30
2022-12-01T15:08:58.347Z,6.19
2022-12-01T15:12:10.436Z,6.46
2022-12-01T15:15:22.411Z,6.46
2022-12-01T15:18:42.437Z,6.38
2022-12-01T15:21:59.711Z,6.34
2022-12-01T15:25:25.000Z,6.31
2022-12-01T15:28:50.303Z,6.23
2022-12-01T15:32:13.828Z,6.28
2022-12-01T15:35:25.247Z,6.29
2022-12-01T15:38:51.351Z,6.17
2022-12-01T15:42:09.762Z,6.16
2022-12-01T15:45:35.820Z,6.13
2022-12-01T15:48:40.325Z,6.00
2022-12-01T15:52:05.802Z,6.02
2022-12-01T15:55:51.801Z,5.95
2022-12-01T15:59:24.010Z,5.93
2022-12-01T16:02:35.797Z,5.88
2022-12-01T16:05:45.997Z,5.83
2022-12-01T16:09:08.047Z,5.80
2022-12-01T16:12:31.188Z,5.78
2022-12-01T16:15:55.843Z,5.79
2022-12-01T16:19:23.026Z,5.78
2022-12-01T16:22:42.050Z,5.81
2022-12-01T16:25:54.630Z,5.81
2022-12-01T16:29:23.026Z,5.73
2022-12-01T16:32:40.741Z,5.73
2022-12-01T16:36:00.463Z,5.82
2022-12-01T16:39:23.063Z,5.88
2022-12-01T16:42:51.064Z,5.90
2022-12-01T16:46:17.467Z,5.88
2022-12-01T16:49:39.901Z,5.94
2022-12-01T16:53:00.908Z,5.96
2022-12-01T16:56:28.654Z,5.90
2022-12-01T16:59:47.958Z,5.72
2022-12-01T17:03:11.053Z,5.57
2022-12-01T17:06:29.507Z,5.43
2022-12-01T17:09:53.981Z,5.36
2022-12-01T17:13:15.028Z,5.30
2022-12-01T17:16:25.080Z,5.18
2022-12-01T17:19:48.092Z,5.28
2022-12-01T17:23:11.929Z,5.31
2022-12-01T17:26:37.322Z,5.27
2022-12-01T17:30:04.925Z,5.31
2022-12-01T17:33:28.026Z,5.29
2022-12-01T17:36:51.172Z,5.23
2022-12-01T17:40:12.991Z,5.11
2022-12-01T17:43:36.136Z,5.03
2022-12-01T17:47:02.505Z,5.07
2022-12-01T17:50:20.075Z,4.99
2022-12-01T17:53:42.956Z,4.92
2022-12-01T17:57:04.015Z,4.83
2022-12-01T18:00:27.871Z,4.74
2022-12-01T18:03:51.019Z,4.74
2022-12-01T18:07:10.916Z,4.73
2022-12-01T18:10:31.129Z,4.64
2022-12-01T18:13:56.513Z,4.57
2022-12-01T18:17:10.986Z,4.55
2022-12-01T18:20:14.395Z,4.44
2022-12-01T18:23:17.978Z,4.40
2022-12-01T18:26:40.622Z,4.33
2022-12-01T18:30:01.566Z,4.42
2022-12-01T18:33:13.334Z,4.38
2022-12-01T18:36:30.875Z,4.30
2022-12-01T18:40:02.015Z,4.25
2022-12-01T18:43:05.441Z,4.23
2022-12-01T18:46:17.848Z,4.26
2022-12-01T18:49:29.261Z,4.17
2022-12-01T18:52:38.838Z,4.08
2022-12-01T18:55:45.779Z,4.05
2022-12-01T18:59:05.123Z,4.08
2022-12-01T19:02:11.452Z,4.12
2022-12-01T19:05:29.019Z,4.13
2022-12-01T19:08:44.813Z,4.25
2022-12-01T19:12:00.171Z,4.19
2022-12-01T19:15:16.722Z,4.19
2022-12-01T19:18:46.615Z,4.10
2022-12-01T19:22:09.748Z,4.18
2022-12-01T19:25:41.896Z,4.03
2022-12-01T19:29:00.658Z,3.99
2022-12-01T19:32:23.738Z,3.91
2022-12-01T19:35:45.704Z,3.97
2022-12-01T19:39:08.801Z,4.06
2022-12-01T19:42:20.646Z,4.06
2022-12-01T19:45:43.773Z,4.03
2022-12-01T19:49:15.823Z,4.06
2022-12-01T19:52:36.750Z,3.82
2022-12-01T19:55:52.573Z,3.90
2022-12-01T19:59:13.295Z,3.93
2022-12-01T20:02:38.761Z,3.81
2022-12-01T20:06:03.284Z,3.80
2022-12-01T20:09:25.599Z,3.80
2022-12-01T20:12:49.752Z,3.84
2022-12-01T20:16:14.856Z,3.75
2022-12-01T20:19:36.344Z,3.66
2022-12-01T20:22:53.698Z,3.61
2022-12-01T20:26:15.405Z,3.59
2022-12-01T20:29:35.552Z,3.54
2022-12-01T20:32:59.562Z,3.47
2022-12-01T20:36:23.106Z,3.38
2022-12-01T20:39:46.620Z,3.24
2022-12-01T20:43:04.607Z,3.06
2022-12-01T20:46:28.781Z,2.96
2022-12-01T20:49:45.747Z,3.03
2022-12-01T20:53:05.506Z,3.06
2022-12-01T20:56:26.891Z,3.10
2022-12-01T20:59:52.617Z,2.93
2022-12-01T21:03:12.595Z,2.88
2022-12-01T21:06:28.942Z,2.93
2022-12-01T21:09:32.818Z,2.87
2022-12-01T21:13:08.928Z,2.92
2022-12-01T21:16:35.250Z,2.92
2022-12-01T21:19:47.719Z,2.95
2022-12-01T21:23:01.560Z,2.93
2022-12-01T21:26:14.785Z,2.84
2022-12-01T21:29:32.626Z,2.78
2022-12-01T21:33:02.236Z,2.72
2022-12-01T21:36:22.627Z,2.73
2022-12-01T21:39:44.488Z,2.69
2022-12-01T21:43:07.470Z,2.67
2022-12-01T21:46:30.463Z,2.54
2022-12-01T21:49:52.593Z,2.40
2022-12-01T21:53:08.342Z,2.31
2022-12-01T21:56:38.557Z,2.45
2022-12-01T21:59:58.589Z,2.49
2022-12-01T22:03:33.284Z,2.51
2022-12-01T22:06:47.574Z,2.50
2022-12-01T22:10:09.121Z,2.52
2022-12-01T22:13:22.377Z,2.50
2022-12-01T22:16:50.212Z,2.53
2022-12-01T22:20:02.577Z,2.47
2022-12-01T22:23:20.295Z,2.44
2022-12-01T22:26:26.461Z,2.47
2022-12-01T22:29:33.992Z,2.41
2022-12-01T22:33:10.147Z,2.35
2022-12-01T22:36:24.847Z,2.34
2022-12-01T22:39:40.129Z,2.24
2022-12-01T22:43:00.792Z,2.33
2022-12-01T22:46:17.671Z,2.30
2022-12-01T22:49:43.305Z,2.32
2022-12-01T22:53:08.232Z,2.45
2022-12-01T22:56:32.363Z,2.52
2022-12-01T22:59:56.119Z,2.55
2022-12-01T23:03:15.077Z,2.53
2022-12-01T23:06:52.602Z,2.61
2022-12-01T23:10:11.156Z,2.59
2022-12-01T23:13:24.946Z,2.71
2022-12-01T23:16:44.252Z,2.79
2022-12-01T23:20:16.421Z,2.85
2022-12-01T23:23:37.169Z,2.86
2022-12-01T23:26:52.308Z,2.95
2022-12-01T23:30:13.986Z,2.86
2022-12-01T23:33:33.123Z,2.80
2022-12-01T23:36:57.112Z,2.71
2022-12-01T23:40:33.555Z,2.70
2022-12-01T23:43:43.088Z,2.69
2022-12-01T23:47:07.136Z,2.62
2022-12-01T23:50:31.918Z,2.55
2022-12-01T23:53:49.877Z,2.57
2022-12-01T23:57:34.366Z,2.65
